sensor_id;sensor_type;location;lat;lon;timestamp;P1;durP1;ratioP1;P2;durP2;ratioP2
41829;SDS011;38614;43.472;23.936;2022-12-29T00:01:26;52.15;;;20.70;;
41829;SDS011;38614;43.472;23.936;2022-12-29T00:04:14;43.63;;;18.17;;
41829;SDS011;38614;43.472;23.936;2022-12-29T00:07:02;37.50;;;15.48;;
41829;SDS011;38614;43.472;23.936;2022-12-29T00:09:51;39.08;;;15.63;;
41829;SDS011;38614;43.472;23.936;2022-12-29T00:12:39;38.67;;;16.10;;
41829;SDS011;38614;43.472;23.936;2022-12-29T00:15:45;50.67;;;18.83;;
41829;SDS011;38614;43.472;23.936;2022-12-29T00:18:33;49.35;;;19.70;;
41829;SDS011;38614;43.472;23.936;2022-12-29T00:21:21;39.75;;;18.02;;
41829;SDS011;38614;43.472;23.936;2022-12-29T00:24:29;37.85;;;15.10;;
41829;SDS011;38614;43.472;23.936;2022-12-29T00:27:35;38.30;;;15.80;;
41829;SDS011;38614;43.472;23.936;2022-12-29T00:30:41;28.45;;;14.85;;
41829;SDS011;38614;43.472;23.936;2022-12-29T00:33:48;30.20;;;13.80;;
41829;SDS011;38614;43.472;23.936;2022-12-29T00:36:54;42.00;;;13.13;;
41829;SDS011;38614;43.472;23.936;2022-12-29T00:39:42;39.42;;;15.63;;
41829;SDS011;38614;43.472;23.936;2022-12-29T00:42:50;36.78;;;14.95;;
41829;SDS011;38614;43.472;23.936;2022-12-29T00:45:56;39.05;;;15.20;;
41829;SDS011;38614;43.472;23.936;2022-12-29T00:48:43;33.13;;;15.48;;
41829;SDS011;38614;43.472;23.936;2022-12-29T00:51:51;30.38;;;13.75;;
41829;SDS011;38614;43.472;23.936;2022-12-29T00:54:40;33.70;;;15.32;;
41829;SDS011;38614;43.472;23.936;2022-12-29T00:57:28;30.92;;;13.90;;
41829;SDS011;38614;43.472;23.936;2022-12-29T01:00:16;36.45;;;14.60;;
41829;SDS011;38614;43.472;23.936;2022-12-29T01:03:03;50.05;;;15.77;;
41829;SDS011;38614;43.472;23.936;2022-12-29T01:05:52;37.92;;;14.57;;
41829;SDS011;38614;43.472;23.936;2022-12-29T01:08:40;39.17;;;15.73;;
41829;SDS011;38614;43.472;23.936;2022-12-29T01:11:28;41.10;;;17.50;;
41829;SDS011;38614;43.472;23.936;2022-12-29T01:14:16;34.33;;;17.35;;
41829;SDS011;38614;43.472;23.936;2022-12-29T01:17:05;37.10;;;16.38;;
41829;SDS011;38614;43.472;23.936;2022-12-29T01:19:53;42.47;;;16.95;;
41829;SDS011;38614;43.472;23.936;2022-12-29T01:22:41;51.40;;;19.90;;
41829;SDS011;38614;43.472;23.936;2022-12-29T01:25:29;44.83;;;19.27;;
41829;SDS011;38614;43.472;23.936;2022-12-29T01:28:18;53.13;;;20.38;;
41829;SDS011;38614;43.472;23.936;2022-12-29T01:31:12;56.53;;;21.23;;
41829;SDS011;38614;43.472;23.936;2022-12-29T01:34:01;50.80;;;19.77;;
41829;SDS011;38614;43.472;23.936;2022-12-29T01:36:49;51.67;;;20.35;;
41829;SDS011;38614;43.472;23.936;2022-12-29T01:39:39;41.03;;;16.95;;
41829;SDS011;38614;43.472;23.936;2022-12-29T01:42:27;46.65;;;18.48;;
41829;SDS011;38614;43.472;23.936;2022-12-29T01:45:16;43.90;;;17.02;;
41829;SDS011;38614;43.472;23.936;2022-12-29T01:48:04;43.25;;;16.63;;
41829;SDS011;38614;43.472;23.936;2022-12-29T01:50:55;40.42;;;17.95;;
41829;SDS011;38614;43.472;23.936;2022-12-29T01:53:43;49.85;;;19.08;;
41829;SDS011;38614;43.472;23.936;2022-12-29T01:56:32;43.55;;;16.75;;
41829;SDS011;38614;43.472;23.936;2022-12-29T01:59:22;42.40;;;17.58;;
41829;SDS011;38614;43.472;23.936;2022-12-29T02:02:14;44.00;;;18.05;;
41829;SDS011;38614;43.472;23.936;2022-12-29T02:05:07;42.92;;;17.30;;
41829;SDS011;38614;43.472;23.936;2022-12-29T02:08:04;36.53;;;17.80;;
41829;SDS011;38614;43.472;23.936;2022-12-29T02:10:53;38.10;;;17.58;;
41829;SDS011;38614;43.472;23.936;2022-12-29T02:13:43;37.90;;;16.70;;
41829;SDS011;38614;43.472;23.936;2022-12-29T02:16:44;42.35;;;19.13;;
41829;SDS011;38614;43.472;23.936;2022-12-29T02:29:51;69.28;;;29.48;;
41829;SDS011;38614;43.472;23.936;2022-12-29T02:38:47;68.53;;;31.23;;
41829;SDS011;38614;43.472;23.936;2022-12-29T02:42:03;56.10;;;24.05;;
41829;SDS011;38614;43.472;23.936;2022-12-29T02:44:59;50.10;;;24.40;;
41829;SDS011;38614;43.472;23.936;2022-12-29T02:51:18;56.60;;;24.45;;
41829;SDS011;38614;43.472;23.936;2022-12-29T02:54:18;53.80;;;22.77;;
41829;SDS011;38614;43.472;23.936;2022-12-29T03:00:21;43.33;;;21.17;;
41829;SDS011;38614;43.472;23.936;2022-12-29T03:03:21;57.63;;;24.20;;
41829;SDS011;38614;43.472;23.936;2022-12-29T03:09:18;42.47;;;21.02;;
41829;SDS011;38614;43.472;23.936;2022-12-29T03:12:37;53.00;;;21.63;;
41829;SDS011;38614;43.472;23.936;2022-12-29T03:15:55;40.50;;;16.45;;
41829;SDS011;38614;43.472;23.936;2022-12-29T03:22:12;45.53;;;16.80;;
41829;SDS011;38614;43.472;23.936;2022-12-29T03:25:23;35.92;;;15.32;;
41829;SDS011;38614;43.472;23.936;2022-12-29T03:28:27;38.92;;;19.30;;
41829;SDS011;38614;43.472;23.936;2022-12-29T03:31:22;30.33;;;16.75;;
41829;SDS011;38614;43.472;23.936;2022-12-29T03:34:13;31.73;;;16.13;;
41829;SDS011;38614;43.472;23.936;2022-12-29T03:37:04;36.17;;;15.43;;
41829;SDS011;38614;43.472;23.936;2022-12-29T03:39:57;29.13;;;15.20;;
41829;SDS011;38614;43.472;23.936;2022-12-29T03:42:44;26.35;;;15.32;;
41829;SDS011;38614;43.472;23.936;2022-12-29T03:45:33;35.05;;;16.42;;
41829;SDS011;38614;43.472;23.936;2022-12-29T03:48:22;37.38;;;17.00;;
41829;SDS011;38614;43.472;23.936;2022-12-29T03:51:11;25.77;;;14.45;;
41829;SDS011;38614;43.472;23.936;2022-12-29T03:53:58;34.38;;;18.92;;
41829;SDS011;38614;43.472;23.936;2022-12-29T03:56:46;29.52;;;16.50;;
41829;SDS011;38614;43.472;23.936;2022-12-29T03:59:38;27.05;;;15.38;;
41829;SDS011;38614;43.472;23.936;2022-12-29T04:02:26;30.05;;;15.13;;
41829;SDS011;38614;43.472;23.936;2022-12-29T04:05:14;32.35;;;15.05;;
41829;SDS011;38614;43.472;23.936;2022-12-29T04:08:02;32.92;;;15.68;;
41829;SDS011;38614;43.472;23.936;2022-12-29T04:10:50;27.70;;;13.02;;
41829;SDS011;38614;43.472;23.936;2022-12-29T04:13:40;33.28;;;15.00;;
41829;SDS011;38614;43.472;23.936;2022-12-29T04:16:32;35.15;;;16.35;;
41829;SDS011;38614;43.472;23.936;2022-12-29T04:19:25;29.75;;;13.88;;
41829;SDS011;38614;43.472;23.936;2022-12-29T04:22:12;40.60;;;14.82;;
41829;SDS011;38614;43.472;23.936;2022-12-29T04:25:01;24.38;;;14.20;;
41829;SDS011;38614;43.472;23.936;2022-12-29T04:28:14;28.30;;;13.35;;
41829;SDS011;38614;43.472;23.936;2022-12-29T04:31:23;22.30;;;13.00;;
41829;SDS011;38614;43.472;23.936;2022-12-29T04:34:13;25.80;;;11.65;;
41829;SDS011;38614;43.472;23.936;2022-12-29T04:37:01;23.05;;;12.73;;
41829;SDS011;38614;43.472;23.936;2022-12-29T04:39:49;22.70;;;12.57;;
41829;SDS011;38614;43.472;23.936;2022-12-29T04:42:41;28.50;;;13.68;;
41829;SDS011;38614;43.472;23.936;2022-12-29T04:45:28;24.77;;;12.88;;
41829;SDS011;38614;43.472;23.936;2022-12-29T04:48:27;31.83;;;16.35;;
41829;SDS011;38614;43.472;23.936;2022-12-29T04:51:44;47.83;;;19.63;;
41829;SDS011;38614;43.472;23.936;2022-12-29T04:54:35;51.88;;;19.77;;
41829;SDS011;38614;43.472;23.936;2022-12-29T04:57:31;34.95;;;16.00;;
41829;SDS011;38614;43.472;23.936;2022-12-29T05:00:20;29.05;;;12.50;;
41829;SDS011;38614;43.472;23.936;2022-12-29T05:03:07;33.92;;;13.30;;
41829;SDS011;38614;43.472;23.936;2022-12-29T05:05:59;34.90;;;13.55;;
41829;SDS011;38614;43.472;23.936;2022-12-29T05:08:46;25.55;;;13.23;;
41829;SDS011;38614;43.472;23.936;2022-12-29T05:11:34;26.67;;;12.38;;
41829;SDS011;38614;43.472;23.936;2022-12-29T05:14:22;32.13;;;12.38;;
41829;SDS011;38614;43.472;23.936;2022-12-29T05:20:59;26.92;;;9.68;;
41829;SDS011;38614;43.472;23.936;2022-12-29T05:23:48;33.70;;;12.60;;
41829;SDS011;38614;43.472;23.936;2022-12-29T05:26:35;36.83;;;15.68;;
41829;SDS011;38614;43.472;23.936;2022-12-29T05:29:43;37.33;;;15.65;;
41829;SDS011;38614;43.472;23.936;2022-12-29T05:32:36;32.95;;;15.88;;
41829;SDS011;38614;43.472;23.936;2022-12-29T05:35:37;28.90;;;14.73;;
41829;SDS011;38614;43.472;23.936;2022-12-29T05:38:24;36.47;;;18.27;;
41829;SDS011;38614;43.472;23.936;2022-12-29T05:41:13;32.22;;;15.15;;
41829;SDS011;38614;43.472;23.936;2022-12-29T05:44:30;46.40;;;15.82;;
41829;SDS011;38614;43.472;23.936;2022-12-29T05:47:39;49.17;;;22.35;;
41829;SDS011;38614;43.472;23.936;2022-12-29T05:50:34;40.40;;;20.65;;
41829;SDS011;38614;43.472;23.936;2022-12-29T05:53:31;53.17;;;22.55;;
41829;SDS011;38614;43.472;23.936;2022-12-29T05:56:21;49.15;;;22.15;;
41829;SDS011;38614;43.472;23.936;2022-12-29T05:59:18;39.78;;;20.95;;
41829;SDS011;38614;43.472;23.936;2022-12-29T06:02:07;59.53;;;26.00;;
41829;SDS011;38614;43.472;23.936;2022-12-29T06:07:51;61.45;;;25.55;;
41829;SDS011;38614;43.472;23.936;2022-12-29T06:10:39;56.45;;;24.55;;
41829;SDS011;38614;43.472;23.936;2022-12-29T06:13:28;42.90;;;19.92;;
41829;SDS011;38614;43.472;23.936;2022-12-29T06:16:16;42.15;;;19.95;;
41829;SDS011;38614;43.472;23.936;2022-12-29T06:19:04;34.42;;;15.20;;
41829;SDS011;38614;43.472;23.936;2022-12-29T06:21:52;34.13;;;15.05;;
41829;SDS011;38614;43.472;23.936;2022-12-29T06:24:41;36.08;;;16.58;;
41829;SDS011;38614;43.472;23.936;2022-12-29T06:27:28;33.15;;;18.75;;
41829;SDS011;38614;43.472;23.936;2022-12-29T06:30:16;42.55;;;20.63;;
41829;SDS011;38614;43.472;23.936;2022-12-29T06:33:04;46.33;;;21.98;;
41829;SDS011;38614;43.472;23.936;2022-12-29T06:35:52;53.72;;;28.63;;
41829;SDS011;38614;43.472;23.936;2022-12-29T06:38:40;64.60;;;31.50;;
41829;SDS011;38614;43.472;23.936;2022-12-29T06:41:28;69.60;;;31.63;;
41829;SDS011;38614;43.472;23.936;2022-12-29T06:44:38;68.75;;;31.95;;
41829;SDS011;38614;43.472;23.936;2022-12-29T06:47:29;79.72;;;35.03;;
41829;SDS011;38614;43.472;23.936;2022-12-29T06:50:17;88.07;;;34.58;;
41829;SDS011;38614;43.472;23.936;2022-12-29T06:53:13;84.63;;;36.13;;
41829;SDS011;38614;43.472;23.936;2022-12-29T06:56:01;88.65;;;35.78;;
41829;SDS011;38614;43.472;23.936;2022-12-29T06:58:49;76.95;;;33.00;;
41829;SDS011;38614;43.472;23.936;2022-12-29T07:01:39;58.17;;;25.08;;
41829;SDS011;38614;43.472;23.936;2022-12-29T07:05:10;50.20;;;22.55;;
41829;SDS011;38614;43.472;23.936;2022-12-29T07:08:15;74.03;;;31.27;;
41829;SDS011;38614;43.472;23.936;2022-12-29T07:11:10;62.47;;;29.98;;
41829;SDS011;38614;43.472;23.936;2022-12-29T07:14:04;48.45;;;20.67;;
41829;SDS011;38614;43.472;23.936;2022-12-29T07:21:07;31.38;;;16.52;;
41829;SDS011;38614;43.472;23.936;2022-12-29T07:24:21;35.50;;;15.25;;
41829;SDS011;38614;43.472;23.936;2022-12-29T07:27:18;31.23;;;16.65;;
41829;SDS011;38614;43.472;23.936;2022-12-29T07:30:51;44.45;;;15.43;;
41829;SDS011;38614;43.472;23.936;2022-12-29T07:37:46;25.50;;;10.80;;
41829;SDS011;38614;43.472;23.936;2022-12-29T07:45:34;21.23;;;9.90;;
41829;SDS011;38614;43.472;23.936;2022-12-29T07:48:27;23.13;;;10.13;;
41829;SDS011;38614;43.472;23.936;2022-12-29T07:51:20;27.30;;;12.55;;
41829;SDS011;38614;43.472;23.936;2022-12-29T07:54:08;30.25;;;15.95;;
41829;SDS011;38614;43.472;23.936;2022-12-29T07:56:56;27.13;;;13.68;;
41829;SDS011;38614;43.472;23.936;2022-12-29T07:59:58;36.97;;;15.45;;
41829;SDS011;38614;43.472;23.936;2022-12-29T08:03:40;28.13;;;11.82;;
41829;SDS011;38614;43.472;23.936;2022-12-29T08:06:38;26.55;;;13.32;;
41829;SDS011;38614;43.472;23.936;2022-12-29T08:09:54;24.30;;;9.88;;
41829;SDS011;38614;43.472;23.936;2022-12-29T08:12:45;17.75;;;10.23;;
41829;SDS011;38614;43.472;23.936;2022-12-29T08:15:33;17.35;;;9.82;;
41829;SDS011;38614;43.472;23.936;2022-12-29T08:18:21;20.13;;;10.32;;
41829;SDS011;38614;43.472;23.936;2022-12-29T08:21:09;29.92;;;10.15;;
41829;SDS011;38614;43.472;23.936;2022-12-29T08:23:56;23.05;;;11.52;;
41829;SDS011;38614;43.472;23.936;2022-12-29T08:26:48;22.55;;;10.30;;
41829;SDS011;38614;43.472;23.936;2022-12-29T08:29:36;23.70;;;11.70;;
41829;SDS011;38614;43.472;23.936;2022-12-29T08:32:24;24.60;;;11.13;;
41829;SDS011;38614;43.472;23.936;2022-12-29T08:35:15;29.42;;;13.48;;
41829;SDS011;38614;43.472;23.936;2022-12-29T08:38:03;28.30;;;13.45;;
41829;SDS011;38614;43.472;23.936;2022-12-29T08:41:00;23.75;;;12.65;;
41829;SDS011;38614;43.472;23.936;2022-12-29T08:43:51;40.35;;;14.30;;
41829;SDS011;38614;43.472;23.936;2022-12-29T08:46:39;27.80;;;12.55;;
41829;SDS011;38614;43.472;23.936;2022-12-29T08:49:27;33.65;;;14.27;;
41829;SDS011;38614;43.472;23.936;2022-12-29T08:52:14;30.55;;;14.93;;
41829;SDS011;38614;43.472;23.936;2022-12-29T08:55:02;26.83;;;14.57;;
41829;SDS011;38614;43.472;23.936;2022-12-29T08:57:50;25.17;;;12.93;;
41829;SDS011;38614;43.472;23.936;2022-12-29T09:00:47;29.27;;;14.80;;
41829;SDS011;38614;43.472;23.936;2022-12-29T09:03:45;31.08;;;13.20;;
41829;SDS011;38614;43.472;23.936;2022-12-29T09:06:56;25.73;;;12.27;;
41829;SDS011;38614;43.472;23.936;2022-12-29T09:09:43;30.35;;;11.65;;
41829;SDS011;38614;43.472;23.936;2022-12-29T09:12:35;31.10;;;12.87;;
41829;SDS011;38614;43.472;23.936;2022-12-29T09:15:23;33.75;;;13.93;;
41829;SDS011;38614;43.472;23.936;2022-12-29T09:18:23;23.85;;;12.20;;
41829;SDS011;38614;43.472;23.936;2022-12-29T09:21:20;22.35;;;12.68;;
41829;SDS011;38614;43.472;23.936;2022-12-29T09:24:45;23.20;;;11.68;;
41829;SDS011;38614;43.472;23.936;2022-12-29T09:27:50;17.00;;;11.38;;
41829;SDS011;38614;43.472;23.936;2022-12-29T09:31:04;25.10;;;12.02;;
41829;SDS011;38614;43.472;23.936;2022-12-29T09:34:58;20.30;;;11.48;;
41829;SDS011;38614;43.472;23.936;2022-12-29T09:47:26;27.63;;;12.65;;
41829;SDS011;38614;43.472;23.936;2022-12-29T09:57:23;27.67;;;13.85;;
41829;SDS011;38614;43.472;23.936;2022-12-29T10:00:22;27.20;;;13.80;;
41829;SDS011;38614;43.472;23.936;2022-12-29T10:03:40;28.70;;;14.00;;
41829;SDS011;38614;43.472;23.936;2022-12-29T10:10:03;29.50;;;13.63;;
41829;SDS011;38614;43.472;23.936;2022-12-29T10:25:56;21.15;;;10.48;;
41829;SDS011;38614;43.472;23.936;2022-12-29T10:28:47;20.25;;;10.25;;
41829;SDS011;38614;43.472;23.936;2022-12-29T10:31:44;16.77;;;9.27;;
41829;SDS011;38614;43.472;23.936;2022-12-29T10:34:47;26.38;;;11.43;;
41829;SDS011;38614;43.472;23.936;2022-12-29T10:40:51;20.67;;;11.25;;
41829;SDS011;38614;43.472;23.936;2022-12-29T10:43:52;20.80;;;11.05;;
41829;SDS011;38614;43.472;23.936;2022-12-29T10:46:46;24.75;;;11.13;;
41829;SDS011;38614;43.472;23.936;2022-12-29T10:50:00;25.30;;;10.23;;
41829;SDS011;38614;43.472;23.936;2022-12-29T10:52:51;26.10;;;9.90;;
41829;SDS011;38614;43.472;23.936;2022-12-29T10:55:42;21.55;;;11.35;;
41829;SDS011;38614;43.472;23.936;2022-12-29T10:58:34;19.77;;;10.52;;
41829;SDS011;38614;43.472;23.936;2022-12-29T11:01:41;19.33;;;10.80;;
41829;SDS011;38614;43.472;23.936;2022-12-29T11:08:19;19.23;;;9.25;;
41829;SDS011;38614;43.472;23.936;2022-12-29T11:11:24;19.02;;;8.30;;
41829;SDS011;38614;43.472;23.936;2022-12-29T11:14:27;13.30;;;7.53;;
41829;SDS011;38614;43.472;23.936;2022-12-29T11:17:22;19.50;;;9.43;;
41829;SDS011;38614;43.472;23.936;2022-12-29T11:23:41;18.85;;;9.60;;
41829;SDS011;38614;43.472;23.936;2022-12-29T11:26:29;15.88;;;9.10;;
41829;SDS011;38614;43.472;23.936;2022-12-29T11:29:22;13.70;;;8.65;;
41829;SDS011;38614;43.472;23.936;2022-12-29T11:32:17;18.30;;;8.43;;
41829;SDS011;38614;43.472;23.936;2022-12-29T11:38:38;15.20;;;9.00;;
41829;SDS011;38614;43.472;23.936;2022-12-29T11:41:59;21.42;;;9.30;;
41829;SDS011;38614;43.472;23.936;2022-12-29T11:48:16;20.17;;;8.90;;
41829;SDS011;38614;43.472;23.936;2022-12-29T11:51:06;18.45;;;8.32;;
41829;SDS011;38614;43.472;23.936;2022-12-29T11:53:58;12.07;;;7.00;;
41829;SDS011;38614;43.472;23.936;2022-12-29T11:56:50;13.70;;;8.40;;
41829;SDS011;38614;43.472;23.936;2022-12-29T12:08:46;16.00;;;8.75;;
41829;SDS011;38614;43.472;23.936;2022-12-29T12:11:40;13.18;;;7.25;;
41829;SDS011;38614;43.472;23.936;2022-12-29T12:20:41;18.80;;;8.90;;
41829;SDS011;38614;43.472;23.936;2022-12-29T12:29:58;16.48;;;8.70;;
41829;SDS011;38614;43.472;23.936;2022-12-29T12:36:09;17.88;;;8.90;;
41829;SDS011;38614;43.472;23.936;2022-12-29T12:55:11;17.63;;;8.35;;
41829;SDS011;38614;43.472;23.936;2022-12-29T13:01:38;19.58;;;7.97;;
41829;SDS011;38614;43.472;23.936;2022-12-29T13:10:35;24.85;;;8.80;;
41829;SDS011;38614;43.472;23.936;2022-12-29T13:13:49;15.27;;;8.57;;
41829;SDS011;38614;43.472;23.936;2022-12-29T13:23:29;17.85;;;9.32;;
41829;SDS011;38614;43.472;23.936;2022-12-29T13:26:37;13.95;;;8.07;;
41829;SDS011;38614;43.472;23.936;2022-12-29T13:29:40;19.63;;;9.18;;
41829;SDS011;38614;43.472;23.936;2022-12-29T13:32:46;18.95;;;10.48;;
41829;SDS011;38614;43.472;23.936;2022-12-29T13:35:49;16.60;;;8.63;;
41829;SDS011;38614;43.472;23.936;2022-12-29T13:38:47;15.27;;;8.48;;
41829;SDS011;38614;43.472;23.936;2022-12-29T13:42:12;17.00;;;8.43;;
41829;SDS011;38614;43.472;23.936;2022-12-29T13:45:02;22.35;;;9.30;;
41829;SDS011;38614;43.472;23.936;2022-12-29T13:51:08;16.98;;;8.45;;
41829;SDS011;38614;43.472;23.936;2022-12-29T14:00:17;20.02;;;10.85;;
41829;SDS011;38614;43.472;23.936;2022-12-29T14:06:33;20.58;;;10.15;;
41829;SDS011;38614;43.472;23.936;2022-12-29T14:09:50;23.52;;;9.77;;
41829;SDS011;38614;43.472;23.936;2022-12-29T14:12:41;25.33;;;11.88;;
41829;SDS011;38614;43.472;23.936;2022-12-29T14:15:31;17.92;;;11.13;;
41829;SDS011;38614;43.472;23.936;2022-12-29T14:18:19;23.30;;;12.02;;
41829;SDS011;38614;43.472;23.936;2022-12-29T14:21:18;30.05;;;13.75;;
41829;SDS011;38614;43.472;23.936;2022-12-29T14:24:38;31.20;;;16.02;;
41829;SDS011;38614;43.472;23.936;2022-12-29T14:30:49;39.53;;;14.20;;
41829;SDS011;38614;43.472;23.936;2022-12-29T14:33:39;40.33;;;15.38;;
41829;SDS011;38614;43.472;23.936;2022-12-29T14:36:33;46.88;;;20.27;;
41829;SDS011;38614;43.472;23.936;2022-12-29T14:39:33;54.17;;;19.90;;
41829;SDS011;38614;43.472;23.936;2022-12-29T14:42:24;38.53;;;19.25;;
41829;SDS011;38614;43.472;23.936;2022-12-29T14:48:00;57.17;;;21.23;;
41829;SDS011;38614;43.472;23.936;2022-12-29T14:50:48;42.75;;;21.45;;
41829;SDS011;38614;43.472;23.936;2022-12-29T14:53:46;49.42;;;22.15;;
41829;SDS011;38614;43.472;23.936;2022-12-29T14:56:38;54.58;;;20.88;;
41829;SDS011;38614;43.472;23.936;2022-12-29T14:59:26;71.85;;;28.52;;
41829;SDS011;38614;43.472;23.936;2022-12-29T15:02:17;87.90;;;29.00;;
41829;SDS011;38614;43.472;23.936;2022-12-29T15:08:26;69.20;;;28.98;;
41829;SDS011;38614;43.472;23.936;2022-12-29T15:17:26;105.28;;;43.42;;
41829;SDS011;38614;43.472;23.936;2022-12-29T15:20:21;115.82;;;47.38;;
41829;SDS011;38614;43.472;23.936;2022-12-29T15:23:14;111.70;;;44.17;;
41829;SDS011;38614;43.472;23.936;2022-12-29T15:26:05;119.97;;;52.50;;
41829;SDS011;38614;43.472;23.936;2022-12-29T15:28:54;169.57;;;79.03;;
41829;SDS011;38614;43.472;23.936;2022-12-29T15:31:48;177.63;;;73.03;;
41829;SDS011;38614;43.472;23.936;2022-12-29T15:34:35;134.57;;;62.60;;
41829;SDS011;38614;43.472;23.936;2022-12-29T15:37:28;146.82;;;62.33;;
41829;SDS011;38614;43.472;23.936;2022-12-29T15:40:27;171.68;;;70.70;;
41829;SDS011;38614;43.472;23.936;2022-12-29T15:46:29;139.93;;;60.33;;
41829;SDS011;38614;43.472;23.936;2022-12-29T15:49:18;146.10;;;57.58;;
41829;SDS011;38614;43.472;23.936;2022-12-29T15:52:10;129.73;;;58.53;;
41829;SDS011;38614;43.472;23.936;2022-12-29T15:54:58;123.93;;;56.40;;
41829;SDS011;38614;43.472;23.936;2022-12-29T15:57:51;110.97;;;50.85;;
41829;SDS011;38614;43.472;23.936;2022-12-29T16:01:02;89.53;;;44.47;;
41829;SDS011;38614;43.472;23.936;2022-12-29T16:03:50;98.35;;;46.17;;
41829;SDS011;38614;43.472;23.936;2022-12-29T16:06:44;92.68;;;44.20;;
41829;SDS011;38614;43.472;23.936;2022-12-29T16:09:53;85.90;;;40.17;;
41829;SDS011;38614;43.472;23.936;2022-12-29T16:12:43;74.30;;;31.98;;
41829;SDS011;38614;43.472;23.936;2022-12-29T16:15:32;75.30;;;34.03;;
41829;SDS011;38614;43.472;23.936;2022-12-29T16:18:24;70.15;;;33.00;;
41829;SDS011;38614;43.472;23.936;2022-12-29T16:21:16;66.65;;;31.00;;
41829;SDS011;38614;43.472;23.936;2022-12-29T16:24:17;79.05;;;32.40;;
41829;SDS011;38614;43.472;23.936;2022-12-29T16:27:21;73.60;;;32.38;;
41829;SDS011;38614;43.472;23.936;2022-12-29T16:30:20;91.50;;;38.42;;
41829;SDS011;38614;43.472;23.936;2022-12-29T16:36:32;76.05;;;36.45;;
41829;SDS011;38614;43.472;23.936;2022-12-29T16:39:31;70.25;;;31.30;;
41829;SDS011;38614;43.472;23.936;2022-12-29T16:42:34;63.97;;;29.17;;
41829;SDS011;38614;43.472;23.936;2022-12-29T16:48:36;54.13;;;28.00;;
41829;SDS011;38614;43.472;23.936;2022-12-29T16:51:35;63.85;;;29.20;;
41829;SDS011;38614;43.472;23.936;2022-12-29T16:54:26;59.70;;;34.03;;
41829;SDS011;38614;43.472;23.936;2022-12-29T16:57:38;62.90;;;35.10;;
41829;SDS011;38614;43.472;23.936;2022-12-29T17:00:27;67.13;;;37.22;;
41829;SDS011;38614;43.472;23.936;2022-12-29T17:03:24;92.55;;;46.08;;
41829;SDS011;38614;43.472;23.936;2022-12-29T17:06:32;83.32;;;44.58;;
41829;SDS011;38614;43.472;23.936;2022-12-29T17:09:27;90.50;;;43.28;;
41829;SDS011;38614;43.472;23.936;2022-12-29T17:12:22;75.78;;;34.22;;
41829;SDS011;38614;43.472;23.936;2022-12-29T17:15:27;63.13;;;32.20;;
41829;SDS011;38614;43.472;23.936;2022-12-29T17:18:22;70.00;;;38.03;;
41829;SDS011;38614;43.472;23.936;2022-12-29T17:21:19;65.00;;;32.83;;
41829;SDS011;38614;43.472;23.936;2022-12-29T17:24:33;68.93;;;34.50;;
41829;SDS011;38614;43.472;23.936;2022-12-29T17:27:29;63.33;;;31.73;;
41829;SDS011;38614;43.472;23.936;2022-12-29T17:31:08;67.70;;;31.63;;
41829;SDS011;38614;43.472;23.936;2022-12-29T17:34:36;82.05;;;36.10;;
41829;SDS011;38614;43.472;23.936;2022-12-29T17:43:21;83.50;;;39.65;;
41829;SDS011;38614;43.472;23.936;2022-12-29T17:46:13;81.40;;;39.80;;
41829;SDS011;38614;43.472;23.936;2022-12-29T17:49:04;78.57;;;36.15;;
41829;SDS011;38614;43.472;23.936;2022-12-29T17:51:57;83.07;;;40.10;;
41829;SDS011;38614;43.472;23.936;2022-12-29T17:54:57;79.55;;;37.58;;
41829;SDS011;38614;43.472;23.936;2022-12-29T17:57:45;85.15;;;38.10;;
41829;SDS011;38614;43.472;23.936;2022-12-29T18:00:36;85.25;;;40.25;;
41829;SDS011;38614;43.472;23.936;2022-12-29T18:03:28;81.93;;;39.90;;
41829;SDS011;38614;43.472;23.936;2022-12-29T18:06:23;81.35;;;39.10;;
41829;SDS011;38614;43.472;23.936;2022-12-29T18:09:23;80.90;;;37.78;;
41829;SDS011;38614;43.472;23.936;2022-12-29T18:15:21;115.55;;;47.58;;
41829;SDS011;38614;43.472;23.936;2022-12-29T18:18:25;123.55;;;48.05;;
41829;SDS011;38614;43.472;23.936;2022-12-29T18:21:23;103.78;;;48.22;;
41829;SDS011;38614;43.472;23.936;2022-12-29T18:24:14;94.18;;;43.63;;
41829;SDS011;38614;43.472;23.936;2022-12-29T18:27:09;100.47;;;45.70;;
41829;SDS011;38614;43.472;23.936;2022-12-29T18:29:59;102.57;;;47.65;;
41829;SDS011;38614;43.472;23.936;2022-12-29T18:32:47;98.32;;;44.80;;
41829;SDS011;38614;43.472;23.936;2022-12-29T18:35:39;87.97;;;39.95;;
41829;SDS011;38614;43.472;23.936;2022-12-29T18:38:31;95.30;;;44.67;;
41829;SDS011;38614;43.472;23.936;2022-12-29T18:41:27;109.28;;;49.60;;
41829;SDS011;38614;43.472;23.936;2022-12-29T18:44:18;128.02;;;55.70;;
41829;SDS011;38614;43.472;23.936;2022-12-29T18:47:08;114.10;;;55.72;;
41829;SDS011;38614;43.472;23.936;2022-12-29T18:49:56;139.30;;;60.42;;
41829;SDS011;38614;43.472;23.936;2022-12-29T18:52:44;134.23;;;62.33;;
41829;SDS011;38614;43.472;23.936;2022-12-29T18:55:34;113.20;;;52.42;;
41829;SDS011;38614;43.472;23.936;2022-12-29T18:58:22;134.15;;;55.70;;
41829;SDS011;38614;43.472;23.936;2022-12-29T19:01:21;121.18;;;54.58;;
41829;SDS011;38614;43.472;23.936;2022-12-29T19:04:11;130.13;;;57.47;;
41829;SDS011;38614;43.472;23.936;2022-12-29T19:07:01;137.82;;;54.33;;
41829;SDS011;38614;43.472;23.936;2022-12-29T19:09:51;116.43;;;54.47;;
41829;SDS011;38614;43.472;23.936;2022-12-29T19:12:39;117.05;;;50.05;;
41829;SDS011;38614;43.472;23.936;2022-12-29T19:15:28;112.07;;;52.53;;
41829;SDS011;38614;43.472;23.936;2022-12-29T19:18:22;103.90;;;47.67;;
41829;SDS011;38614;43.472;23.936;2022-12-29T19:21:31;130.15;;;53.13;;
41829;SDS011;38614;43.472;23.936;2022-12-29T19:24:18;121.18;;;52.55;;
41829;SDS011;38614;43.472;23.936;2022-12-29T19:27:09;108.68;;;48.30;;
41829;SDS011;38614;43.472;23.936;2022-12-29T19:30:02;135.93;;;57.97;;
41829;SDS011;38614;43.472;23.936;2022-12-29T19:32:51;179.15;;;73.45;;
41829;SDS011;38614;43.472;23.936;2022-12-29T19:35:41;170.55;;;75.00;;
41829;SDS011;38614;43.472;23.936;2022-12-29T19:38:29;181.65;;;76.20;;
41829;SDS011;38614;43.472;23.936;2022-12-29T19:41:17;170.40;;;77.75;;
41829;SDS011;38614;43.472;23.936;2022-12-29T19:44:06;162.60;;;70.80;;
41829;SDS011;38614;43.472;23.936;2022-12-29T19:46:54;153.77;;;68.72;;
41829;SDS011;38614;43.472;23.936;2022-12-29T19:49:42;141.05;;;62.55;;
41829;SDS011;38614;43.472;23.936;2022-12-29T19:52:30;143.43;;;62.70;;
41829;SDS011;38614;43.472;23.936;2022-12-29T19:55:18;124.68;;;61.65;;
41829;SDS011;38614;43.472;23.936;2022-12-29T19:58:09;137.25;;;60.67;;
41829;SDS011;38614;43.472;23.936;2022-12-29T20:01:08;139.13;;;59.33;;
41829;SDS011;38614;43.472;23.936;2022-12-29T20:04:05;143.15;;;65.72;;
41829;SDS011;38614;43.472;23.936;2022-12-29T20:06:52;137.40;;;60.30;;
41829;SDS011;38614;43.472;23.936;2022-12-29T20:09:40;148.60;;;63.75;;
41829;SDS011;38614;43.472;23.936;2022-12-29T20:12:29;171.77;;;71.85;;